createdAt,value
2022-08-21T00:00:58.389Z,16.81
2022-08-21T00:01:58.408Z,16.81
2022-08-21T00:02:58.600Z,16.76
2022-08-21T00:03:58.332Z,16.85
2022-08-21T00:04:58.331Z,16.76
2022-08-21T00:05:58.322Z,16.75
2022-08-21T00:06:58.354Z,16.76
2022-08-21T00:07:58.296Z,16.75
2022-08-21T00:09:00.811Z,16.75
2022-08-21T00:09:58.263Z,16.68
2022-08-21T00:10:58.264Z,16.66
2022-08-21T00:11:58.290Z,16.68
2022-08-21T00:12:58.519Z,16.60
2022-08-21T00:13:58.246Z,16.63
2022-08-21T00:14:58.362Z,16.60
2022-08-21T00:15:58.199Z,16.66
2022-08-21T00:17:00.233Z,16.58
2022-08-21T00:17:58.212Z,16.63
2022-08-21T00:18:58.179Z,16.49
2022-08-21T00:19:58.179Z,16.52
2022-08-21T00:20:58.183Z,16.50
2022-08-21T00:21:58.154Z,16.56
2022-08-21T00:22:58.385Z,16.50
2022-08-21T00:23:58.109Z,16.41
2022-08-21T00:24:58.121Z,16.53
2022-08-21T00:25:58.088Z,16.43
2022-08-21T00:26:58.072Z,16.48
2022-08-21T00:27:58.063Z,16.48
2022-08-21T00:28:58.966Z,16.38
2022-08-21T00:29:58.072Z,16.42
2022-08-21T00:30:58.048Z,16.49
2022-08-21T00:31:58.016Z,16.33
2022-08-21T00:32:58.287Z,16.46
2022-08-21T00:34:00.857Z,16.34
2022-08-21T00:34:58.017Z,16.38
2022-08-21T00:35:57.986Z,16.35
2022-08-21T00:36:57.959Z,16.43
2022-08-21T00:37:57.948Z,16.41
2022-08-21T00:38:57.962Z,16.43
2022-08-21T00:39:58.043Z,16.45
2022-08-21T00:40:57.919Z,16.43
2022-08-21T00:41:57.913Z,16.45
2022-08-21T00:42:57.893Z,16.35
2022-08-21T00:43:57.928Z,16.46
2022-08-21T00:44:57.900Z,16.41
2022-08-21T00:45:57.891Z,16.35
2022-08-21T00:46:57.861Z,16.38
2022-08-21T00:47:57.842Z,16.35
2022-08-21T00:48:59.078Z,16.46
2022-08-21T00:49:57.834Z,16.39
2022-08-21T00:50:57.842Z,16.35
2022-08-21T00:51:57.793Z,16.41
2022-08-21T00:52:58.029Z,16.39
2022-08-21T00:53:57.766Z,16.35
2022-08-21T00:54:57.917Z,16.35
2022-08-21T00:55:58.639Z,16.42
2022-08-21T00:56:59.523Z,16.38
2022-08-21T00:57:57.729Z,16.35
2022-08-21T00:58:57.727Z,16.34
2022-08-21T00:59:57.703Z,16.23
2022-08-21T01:00:57.750Z,16.38
2022-08-21T01:01:57.749Z,16.39
2022-08-21T01:02:57.935Z,16.30
2022-08-21T01:03:57.673Z,16.30
2022-08-21T01:04:57.642Z,16.43
2022-08-21T01:05:57.631Z,16.30
2022-08-21T01:06:57.631Z,16.25
2022-08-21T01:07:57.738Z,16.30
2022-08-21T01:08:57.600Z,16.31
2022-08-21T01:09:57.600Z,16.27
2022-08-21T01:10:57.574Z,16.12
2022-08-21T01:11:57.610Z,16.09
2022-08-21T01:12:57.768Z,16.09
2022-08-21T01:13:57.576Z,16.09
2022-08-21T01:14:57.539Z,16.08
2022-08-21T01:15:57.551Z,16.00
2022-08-21T01:16:57.560Z,15.93
2022-08-21T01:17:57.501Z,15.92
2022-08-21T01:18:57.504Z,15.94
2022-08-21T01:19:57.514Z,15.96
2022-08-21T01:20:57.482Z,15.82
2022-08-21T01:21:57.478Z,15.87
2022-08-21T01:22:57.651Z,15.78
2022-08-21T01:23:57.441Z,15.90
2022-08-21T01:24:57.448Z,15.80
2022-08-21T01:25:57.411Z,15.82
2022-08-21T01:26:57.409Z,15.76
2022-08-21T01:27:57.381Z,15.83
2022-08-21T01:28:57.433Z,15.80
2022-08-21T01:29:57.381Z,15.71
2022-08-21T01:30:57.349Z,15.71
2022-08-21T01:31:57.343Z,15.68
2022-08-21T01:32:57.516Z,15.68
2022-08-21T01:33:57.367Z,15.74
2022-08-21T01:34:57.327Z,15.74
2022-08-21T01:35:57.310Z,15.64
2022-08-21T01:36:57.282Z,15.60
2022-08-21T01:37:57.315Z,15.57
2022-08-21T01:38:57.288Z,15.67
2022-08-21T01:39:57.331Z,15.59
2022-08-21T01:40:57.608Z,15.59
2022-08-21T01:41:57.218Z,15.64
2022-08-21T01:42:57.347Z,15.60
2022-08-21T01:43:58.116Z,15.64
2022-08-21T01:44:57.187Z,15.56
2022-08-21T01:45:57.181Z,15.54
2022-08-21T01:46:57.187Z,15.60
2022-08-21T01:47:57.155Z,15.60
2022-08-21T01:48:57.162Z,15.57
2022-08-21T01:49:57.168Z,15.51
2022-08-21T01:50:57.118Z,15.53
2022-08-21T01:51:57.123Z,15.44
2022-08-21T01:52:57.261Z,15.51
2022-08-21T01:53:57.094Z,15.39
2022-08-21T01:54:57.100Z,15.46
2022-08-21T01:55:57.060Z,15.47
2022-08-21T01:56:57.053Z,15.50
2022-08-21T01:57:57.054Z,15.46
2022-08-21T01:58:57.029Z,15.35
2022-08-21T01:59:57.075Z,15.38
2022-08-21T02:00:57.032Z,15.43
2022-08-21T02:01:57.053Z,15.41
2022-08-21T02:02:57.266Z,15.36
2022-08-21T02:03:56.983Z,15.39
2022-08-21T02:04:56.966Z,15.27
2022-08-21T02:05:56.985Z,15.27
2022-08-21T02:06:56.939Z,15.29
2022-08-21T02:07:56.926Z,15.28
2022-08-21T02:08:56.945Z,15.27
2022-08-21T02:09:56.899Z,15.25
2022-08-21T02:10:56.893Z,15.20
2022-08-21T02:11:56.916Z,15.29
2022-08-21T02:12:57.080Z,15.13
2022-08-21T02:13:56.861Z,15.17
2022-08-21T02:14:56.871Z,15.16
2022-08-21T02:15:56.836Z,15.19
2022-08-21T02:17:05.554Z,15.17
2022-08-21T02:17:57.816Z,15.20
2022-08-21T02:18:56.797Z,15.23
2022-08-21T02:19:56.801Z,15.17
2022-08-21T02:20:56.932Z,15.20
2022-08-21T02:21:56.775Z,15.17
2022-08-21T02:22:56.939Z,15.17
2022-08-21T02:23:56.738Z,15.25
2022-08-21T02:24:56.735Z,15.20
2022-08-21T02:25:56.746Z,15.14
2022-08-21T02:26:56.708Z,15.23
2022-08-21T02:27:56.714Z,15.14
2022-08-21T02:28:56.682Z,15.01
2022-08-21T02:29:56.668Z,15.03
2022-08-21T02:30:56.673Z,15.07
2022-08-21T02:31:56.678Z,15.09
2022-08-21T02:32:56.855Z,15.09
2022-08-21T02:33:56.653Z,15.10
2022-08-21T02:34:56.615Z,15.06
2022-08-21T02:35:56.602Z,15.07
2022-08-21T02:36:59.626Z,15.07
2022-08-21T02:37:56.583Z,14.98
2022-08-21T02:38:56.593Z,14.99
2022-08-21T02:39:56.656Z,14.95
2022-08-21T02:40:56.545Z,14.96
2022-08-21T02:41:56.565Z,14.89
2022-08-21T02:42:56.773Z,14.84
2022-08-21T02:43:56.519Z,14.92
2022-08-21T02:44:56.523Z,14.80
2022-08-21T02:45:56.491Z,14.88
2022-08-21T02:46:56.476Z,14.95
2022-08-21T02:47:56.605Z,14.88
2022-08-21T02:48:56.455Z,14.86
2022-08-21T02:49:56.494Z,14.84
2022-08-21T02:50:56.464Z,14.81
2022-08-21T02:51:56.417Z,14.83
2022-08-21T02:52:56.427Z,14.89
2022-08-21T02:53:56.421Z,14.88
2022-08-21T02:54:56.440Z,14.86
2022-08-21T02:55:56.387Z,14.88
2022-08-21T02:56:56.362Z,14.98
2022-08-21T02:57:56.351Z,14.95
2022-08-21T02:58:56.384Z,14.88
2022-08-21T02:59:56.328Z,14.83
2022-08-21T03:00:56.367Z,14.89
2022-08-21T03:01:56.399Z,14.84
2022-08-21T03:02:56.499Z,14.81
2022-08-21T03:03:56.284Z,14.77
2022-08-21T03:04:56.347Z,14.75
2022-08-21T03:05:56.260Z,14.75
2022-08-21T03:06:56.260Z,14.83
2022-08-21T03:07:56.275Z,14.78
2022-08-21T03:08:56.230Z,14.88
2022-08-21T03:09:56.225Z,14.86
2022-08-21T03:10:56.238Z,14.88
2022-08-21T03:11:56.199Z,14.89
2022-08-21T03:12:56.387Z,14.92
2022-08-21T03:13:56.204Z,14.92
2022-08-21T03:14:56.156Z,14.99
2022-08-21T03:15:56.161Z,15.01
2022-08-21T03:16:56.133Z,15.03
2022-08-21T03:17:56.143Z,14.98
2022-08-21T03:18:56.135Z,15.01
2022-08-21T03:19:56.097Z,14.92
2022-08-21T03:20:56.092Z,14.98
2022-08-21T03:21:56.104Z,14.89
2022-08-21T03:22:56.105Z,14.83
2022-08-21T03:23:56.067Z,14.92
2022-08-21T03:24:56.075Z,14.92
2022-08-21T03:25:56.030Z,14.86
2022-08-21T03:26:56.034Z,14.88
2022-08-21T03:27:58.855Z,14.89
2022-08-21T03:28:56.010Z,14.88
2022-08-21T03:29:55.983Z,14.88
2022-08-21T03:30:56.012Z,14.80
2022-08-21T03:31:55.962Z,14.84
2022-08-21T03:32:56.075Z,14.86
2022-08-21T03:33:55.993Z,14.89
2022-08-21T03:34:55.938Z,14.84
2022-08-21T03:35:55.915Z,14.94
2022-08-21T03:36:55.904Z,14.88
2022-08-21T03:37:55.903Z,14.92
2022-08-21T03:38:55.909Z,14.84
2022-08-21T03:39:55.924Z,14.75
2022-08-21T03:40:55.888Z,14.81
2022-08-21T03:41:55.846Z,14.81
2022-08-21T03:42:55.840Z,14.83
2022-08-21T03:43:55.850Z,14.77
2022-08-21T03:44:55.818Z,14.69
2022-08-21T03:45:55.854Z,14.75
2022-08-21T03:46:55.790Z,14.77
2022-08-21T03:47:55.777Z,14.78
2022-08-21T03:48:55.772Z,14.80
2022-08-21T03:49:55.779Z,14.77
2022-08-21T03:50:55.760Z,14.68
2022-08-21T03:51:59.698Z,14.62
2022-08-21T03:52:55.723Z,14.68
2022-08-21T03:53:55.721Z,14.58
2022-08-21T03:54:55.715Z,14.61
2022-08-21T03:55:55.686Z,14.58
2022-08-21T03:56:55.727Z,14.50
2022-08-21T03:57:55.725Z,14.58
2022-08-21T03:58:55.651Z,14.57
2022-08-21T03:59:55.643Z,14.55
2022-08-21T04:00:55.649Z,14.45
2022-08-21T04:01:55.685Z,14.47
2022-08-21T04:02:55.630Z,14.47
2022-08-21T04:03:55.602Z,14.47
2022-08-21T04:04:55.639Z,14.50
2022-08-21T04:05:55.582Z,14.42
2022-08-21T04:06:55.560Z,14.47
2022-08-21T04:07:55.563Z,14.47
2022-08-21T04:08:55.537Z,14.42
2022-08-21T04:09:55.534Z,14.51
2022-08-21T04:10:55.548Z,14.42
2022-08-21T04:11:55.519Z,14.40
2022-08-21T04:12:55.527Z,14.35
2022-08-21T04:13:55.490Z,14.33
2022-08-21T04:14:55.467Z,14.29
2022-08-21T04:15:55.459Z,14.35
2022-08-21T04:16:55.454Z,14.35
2022-08-21T04:17:55.490Z,14.28
2022-08-21T04:18:55.469Z,14.35
2022-08-21T04:19:55.430Z,14.36
2022-08-21T04:20:55.400Z,14.32
2022-08-21T04:21:55.421Z,14.32
2022-08-21T04:22:55.479Z,14.28
2022-08-21T04:23:55.402Z,14.35
2022-08-21T04:24:55.368Z,14.32
2022-08-21T04:25:55.346Z,14.28
2022-08-21T04:26:55.333Z,14.37
2022-08-21T04:27:55.326Z,14.29
2022-08-21T04:28:55.331Z,14.36
2022-08-21T04:29:55.339Z,14.35
2022-08-21T04:30:55.302Z,14.33
2022-08-21T04:31:55.328Z,14.24
2022-08-21T04:32:55.267Z,14.29
2022-08-21T04:33:55.270Z,14.29
2022-08-21T04:34:55.239Z,14.29
2022-08-21T04:35:55.278Z,14.35
2022-08-21T04:36:55.216Z,14.29
2022-08-21T04:37:55.206Z,14.33
2022-08-21T04:38:55.228Z,14.36
2022-08-21T04:39:55.234Z,14.36
2022-08-21T04:40:55.193Z,14.39
2022-08-21T04:41:55.171Z,14.32
2022-08-21T04:42:55.236Z,14.37
2022-08-21T04:43:55.148Z,14.33
2022-08-21T04:44:55.136Z,14.36
2022-08-21T04:45:55.116Z,14.40
2022-08-21T04:46:55.114Z,14.37
2022-08-21T04:47:55.128Z,14.36
2022-08-21T04:48:55.118Z,14.36
2022-08-21T04:49:55.098Z,14.37
2022-08-21T04:50:55.108Z,14.35
2022-08-21T04:51:55.047Z,14.29
2022-08-21T04:52:55.114Z,14.35
2022-08-21T04:53:55.064Z,14.35
2022-08-21T04:54:55.117Z,14.33
2022-08-21T04:55:55.003Z,14.29
2022-08-21T04:56:55.009Z,14.24
2022-08-21T04:57:54.990Z,14.32
2022-08-21T04:58:54.988Z,14.29
2022-08-21T04:59:54.992Z,14.27
2022-08-21T05:00:54.967Z,14.21
2022-08-21T05:01:54.999Z,14.32
2022-08-21T05:02:54.943Z,14.21
2022-08-21T05:03:54.955Z,14.25
2022-08-21T05:04:54.897Z,14.32
2022-08-21T05:05:54.927Z,14.28
2022-08-21T05:06:54.875Z,14.25
2022-08-21T05:07:54.886Z,14.24
2022-08-21T05:09:01.797Z,14.29
2022-08-21T05:09:55.853Z,14.25
2022-08-21T05:10:59.634Z,14.28
2022-08-21T05:11:55.875Z,14.36
2022-08-21T05:12:54.851Z,14.33
2022-08-21T05:13:56.323Z,14.32
2022-08-21T05:14:54.826Z,14.39
2022-08-21T05:15:54.812Z,14.33
2022-08-21T05:16:54.760Z,14.39
2022-08-21T05:18:01.287Z,14.36
2022-08-21T05:18:55.749Z,14.39
2022-08-21T05:19:54.729Z,14.36
2022-08-21T05:20:54.735Z,14.35
2022-08-21T05:21:54.755Z,14.40
2022-08-21T05:22:54.741Z,14.52
2022-08-21T05:23:54.716Z,14.42
2022-08-21T05:24:54.694Z,14.50
2022-08-21T05:25:54.763Z,14.50
2022-08-21T05:26:54.666Z,14.52
2022-08-21T05:27:54.635Z,14.58
2022-08-21T05:28:54.650Z,14.54
2022-08-21T05:29:54.620Z,14.52
2022-08-21T05:30:54.633Z,14.58
2022-08-21T05:31:54.605Z,14.51
2022-08-21T05:32:54.624Z,14.51
2022-08-21T05:33:55.953Z,14.54
2022-08-21T05:34:54.556Z,14.58
2022-08-21T05:35:54.569Z,14.69
2022-08-21T05:36:54.552Z,14.64
2022-08-21T05:37:54.534Z,14.69
2022-08-21T05:38:54.542Z,14.73
2022-08-21T05:40:20.448Z,14.64
2022-08-21T05:40:55.566Z,14.77
2022-08-21T05:41:54.495Z,14.77
2022-08-21T05:42:55.576Z,14.80
2022-08-21T05:43:54.452Z,14.84
2022-08-21T05:44:54.438Z,14.89
2022-08-21T05:45:54.430Z,14.95
2022-08-21T05:46:54.437Z,14.96
2022-08-21T05:47:54.412Z,15.01
2022-08-21T05:48:54.408Z,15.02
2022-08-21T05:49:54.384Z,15.03
2022-08-21T05:50:54.376Z,15.03
2022-08-21T05:51:54.403Z,15.03
2022-08-21T05:52:56.548Z,15.14
2022-08-21T05:53:55.337Z,15.17
2022-08-21T05:54:54.348Z,15.27
2022-08-21T05:55:54.314Z,15.23
2022-08-21T05:56:54.331Z,15.17
2022-08-21T05:57:54.334Z,15.14
2022-08-21T05:58:54.281Z,15.25
2022-08-21T05:59:54.278Z,15.27
2022-08-21T06:00:54.260Z,15.21
2022-08-21T06:01:54.341Z,15.23
2022-08-21T06:02:54.288Z,15.36
2022-08-21T06:03:54.241Z,15.36
2022-08-21T06:04:54.220Z,15.43
2022-08-21T06:05:54.218Z,15.46
2022-08-21T06:06:54.223Z,15.38
2022-08-21T06:07:54.177Z,15.47
2022-08-21T06:08:54.172Z,15.41
2022-08-21T06:09:54.167Z,15.47
2022-08-21T06:10:54.173Z,15.53
2022-08-21T06:11:54.166Z,15.60
2022-08-21T06:12:54.119Z,15.53
2022-08-21T06:13:54.110Z,15.62
2022-08-21T06:14:54.116Z,15.60
2022-08-21T06:15:54.117Z,15.64
2022-08-21T06:16:54.122Z,15.71
2022-08-21T06:17:54.070Z,15.71
2022-08-21T06:18:54.056Z,15.72
2022-08-21T06:19:54.043Z,15.83
2022-08-21T06:20:54.027Z,15.82
2022-08-21T06:21:54.060Z,15.89
2022-08-21T06:22:54.003Z,15.87
2022-08-21T06:23:54.031Z,15.89
2022-08-21T06:24:53.985Z,15.93
2022-08-21T06:25:53.983Z,15.97
2022-08-21T06:26:53.970Z,15.97
2022-08-21T06:27:53.965Z,16.04
2022-08-21T06:28:53.936Z,16.09
2022-08-21T06:29:54.023Z,16.04
2022-08-21T06:30:53.914Z,16.07
2022-08-21T06:31:53.940Z,16.17
2022-08-21T06:32:53.914Z,16.20
2022-08-21T06:33:53.933Z,16.25
2022-08-21T06:34:53.866Z,16.31
2022-08-21T06:35:53.863Z,16.28
2022-08-21T06:36:53.850Z,16.30
2022-08-21T06:37:53.844Z,16.31
2022-08-21T06:38:53.854Z,16.31
2022-08-21T06:39:53.884Z,16.27
2022-08-21T06:40:53.821Z,16.42
2022-08-21T06:41:53.787Z,16.34
2022-08-21T06:42:53.795Z,16.39
2022-08-21T06:43:53.786Z,16.35
2022-08-21T06:44:53.768Z,16.34
2022-08-21T06:45:53.773Z,16.45
2022-08-21T06:46:53.729Z,16.34
2022-08-21T06:47:53.723Z,16.50
2022-08-21T06:48:53.706Z,16.53
2022-08-21T06:49:53.737Z,16.49
2022-08-21T06:50:53.684Z,16.64
2022-08-21T06:51:53.678Z,16.63
2022-08-21T06:52:53.661Z,16.68
2022-08-21T06:53:53.664Z,16.73
2022-08-21T06:54:53.656Z,16.76
2022-08-21T06:55:53.652Z,16.81
2022-08-21T06:56:53.615Z,16.88
2022-08-21T06:57:53.626Z,16.88
2022-08-21T06:58:53.626Z,17.06
2022-08-21T06:59:53.641Z,17.01
2022-08-21T07:00:57.518Z,17.06
2022-08-21T07:01:54.625Z,17.00
2022-08-21T07:03:01.643Z,17.04
2022-08-21T07:03:53.562Z,17.07
2022-08-21T07:04:53.533Z,17.07
2022-08-21T07:05:53.514Z,17.12
2022-08-21T07:06:53.531Z,17.15
2022-08-21T07:07:53.491Z,17.16
2022-08-21T07:08:53.501Z,17.18
2022-08-21T07:09:53.467Z,17.15
2022-08-21T07:10:53.475Z,17.26
2022-08-21T07:11:53.474Z,17.25
2022-08-21T07:13:00.977Z,17.25
2022-08-21T07:13:54.450Z,17.38
2022-08-21T07:14:53.410Z,17.31
2022-08-21T07:15:53.405Z,17.37
2022-08-21T07:16:53.399Z,17.43
2022-08-21T07:17:53.502Z,17.49
2022-08-21T07:18:53.364Z,17.52
2022-08-21T07:19:53.369Z,17.58
2022-08-21T07:20:53.342Z,17.66
2022-08-21T07:21:53.352Z,17.59
2022-08-21T07:22:53.336Z,17.74
2022-08-21T07:23:53.334Z,17.74
2022-08-21T07:24:53.297Z,17.77
2022-08-21T07:25:53.305Z,17.78
2022-08-21T07:26:53.275Z,17.87
2022-08-21T07:27:53.282Z,17.99
2022-08-21T07:28:53.273Z,18.05
2022-08-21T07:29:53.265Z,18.10
2022-08-21T07:30:53.231Z,18.17
2022-08-21T07:31:53.285Z,18.14
2022-08-21T07:32:53.211Z,18.21
2022-08-21T07:33:53.206Z,18.37
2022-08-21T07:34:53.228Z,18.42
2022-08-21T07:35:53.196Z,18.47
2022-08-21T07:36:53.162Z,18.51
2022-08-21T07:37:53.182Z,18.44
2022-08-21T07:38:53.243Z,18.44
2022-08-21T07:39:53.202Z,18.47
2022-08-21T07:40:53.185Z,18.47
2022-08-21T07:41:53.107Z,18.37
2022-08-21T07:42:53.095Z,18.37
2022-08-21T07:43:53.165Z,18.36
2022-08-21T07:44:53.159Z,18.36
2022-08-21T07:45:53.099Z,18.27
2022-08-21T07:46:53.068Z,18.25
2022-08-21T07:47:57.363Z,18.39
2022-08-21T07:48:53.655Z,18.39
2022-08-21T07:49:53.026Z,18.42
2022-08-21T07:50:53.051Z,18.45
2022-08-21T07:51:53.025Z,18.41
2022-08-21T07:52:52.982Z,18.45
2022-08-21T07:53:52.995Z,18.47
2022-08-21T07:54:52.982Z,18.50
2022-08-21T07:55:52.965Z,18.51
2022-08-21T07:56:52.953Z,18.54
2022-08-21T07:57:52.994Z,18.50
2022-08-21T07:58:52.950Z,18.55
2022-08-21T07:59:52.908Z,18.58
2022-08-21T08:00:52.925Z,18.62
2022-08-21T08:01:52.900Z,18.57
2022-08-21T08:02:52.900Z,18.70
2022-08-21T08:03:52.901Z,18.81
2022-08-21T08:04:52.849Z,18.85
2022-08-21T08:05:52.865Z,18.88
2022-08-21T08:06:52.840Z,18.85
2022-08-21T08:07:52.817Z,18.91
2022-08-21T08:08:52.837Z,18.94
2022-08-21T08:09:52.793Z,18.91
2022-08-21T08:10:52.782Z,18.85
2022-08-21T08:11:52.778Z,19.00
2022-08-21T08:12:52.775Z,19.02
2022-08-21T08:13:52.783Z,19.04
2022-08-21T08:14:52.750Z,18.95
2022-08-21T08:15:52.726Z,19.00
2022-08-21T08:16:52.716Z,18.84
2022-08-21T08:17:52.706Z,18.99
2022-08-21T08:18:52.725Z,19.02
2022-08-21T08:19:52.695Z,19.06
2022-08-21T08:20:52.691Z,18.99
2022-08-21T08:21:52.659Z,19.16
2022-08-21T08:22:52.650Z,19.19
2022-08-21T08:23:52.653Z,19.16
2022-08-21T08:24:52.653Z,19.26
2022-08-21T08:25:52.634Z,19.23
2022-08-21T08:26:53.857Z,19.36
2022-08-21T08:27:53.611Z,19.43
2022-08-21T08:28:52.610Z,19.48
2022-08-21T08:29:52.583Z,19.55
2022-08-21T08:30:52.589Z,19.55
2022-08-21T08:31:52.569Z,19.56
2022-08-21T08:32:52.564Z,19.56
2022-08-21T08:33:52.527Z,19.54
2022-08-21T08:34:52.527Z,19.59
2022-08-21T08:35:52.523Z,19.56
2022-08-21T08:36:52.522Z,19.69
2022-08-21T08:37:52.824Z,19.74
2022-08-21T08:38:52.485Z,19.74
2022-08-21T08:39:52.550Z,19.81
2022-08-21T08:40:52.464Z,19.76
2022-08-21T08:41:57.901Z,19.80
2022-08-21T08:42:53.446Z,19.73
2022-08-21T08:43:52.462Z,19.84
2022-08-21T08:44:52.402Z,19.95
2022-08-21T08:45:52.410Z,20.02
2022-08-21T08:46:52.452Z,19.94
2022-08-21T08:47:53.424Z,20.01
2022-08-21T08:48:53.018Z,20.11
2022-08-21T08:49:52.367Z,20.10
2022-08-21T08:50:52.355Z,20.16
2022-08-21T08:51:53.038Z,20.20
2022-08-21T08:52:52.342Z,20.29
2022-08-21T08:53:52.386Z,20.28
2022-08-21T08:54:52.339Z,20.31
2022-08-21T08:55:52.278Z,20.28
2022-08-21T08:56:52.268Z,20.26
2022-08-21T08:57:52.272Z,20.21
2022-08-21T08:58:52.270Z,20.21
2022-08-21T08:59:52.262Z,20.28
2022-08-21T09:00:52.280Z,20.13
2022-08-21T09:01:52.303Z,20.24
2022-08-21T09:02:52.233Z,20.17
2022-08-21T09:03:52.205Z,20.11
2022-08-21T09:04:52.209Z,20.28
2022-08-21T09:05:52.203Z,20.26
2022-08-21T09:06:52.157Z,20.23
2022-08-21T09:07:52.144Z,20.28
2022-08-21T09:08:52.137Z,20.33
2022-08-21T09:09:52.182Z,20.41
2022-08-21T09:10:52.131Z,20.29
2022-08-21T09:11:52.131Z,20.35
2022-08-21T09:12:52.115Z,20.47
2022-08-21T09:13:52.074Z,20.55
2022-08-21T09:14:52.107Z,20.51
2022-08-21T09:15:52.066Z,20.51
2022-08-21T09:16:52.077Z,20.54
2022-08-21T09:17:52.029Z,20.52
2022-08-21T09:18:52.022Z,20.54
2022-08-21T09:19:52.014Z,20.57
2022-08-21T09:20:52.005Z,20.64
2022-08-21T09:21:52.105Z,20.72
2022-08-21T09:22:52.033Z,20.70
2022-08-21T09:23:51.960Z,20.89
2022-08-21T09:24:52.236Z,20.97
2022-08-21T09:25:51.946Z,21.03
2022-08-21T09:26:51.929Z,20.94
2022-08-21T09:27:51.969Z,20.84
2022-08-21T09:28:51.909Z,20.89
2022-08-21T09:29:51.913Z,20.89
2022-08-21T09:30:51.885Z,20.85
2022-08-21T09:31:51.883Z,20.82
2022-08-21T09:32:52.859Z,20.91
2022-08-21T09:33:51.879Z,21.03
2022-08-21T09:34:51.839Z,21.09
2022-08-21T09:35:51.872Z,21.13
2022-08-21T09:36:51.853Z,21.25
2022-08-21T09:37:51.818Z,21.34
2022-08-21T09:38:51.820Z,21.34
2022-08-21T09:39:51.828Z,21.34
2022-08-21T09:40:51.840Z,21.35
2022-08-21T09:41:51.781Z,21.38
2022-08-21T09:42:51.788Z,21.25
2022-08-21T09:43:51.743Z,21.25
2022-08-21T09:44:51.765Z,21.32
2022-08-21T09:45:51.712Z,21.35
2022-08-21T09:46:51.704Z,21.35
2022-08-21T09:47:51.721Z,21.34
2022-08-21T09:48:51.697Z,21.40
2022-08-21T09:49:51.690Z,21.40
2022-08-21T09:50:51.679Z,21.49
2022-08-21T09:51:51.644Z,21.65
2022-08-21T09:52:52.351Z,21.71
2022-08-21T09:53:51.638Z,21.74
2022-08-21T09:54:51.637Z,21.74
2022-08-21T09:55:51.639Z,21.67
2022-08-21T09:56:51.623Z,21.64
2022-08-21T09:57:51.577Z,21.62
2022-08-21T09:58:51.567Z,21.58
2022-08-21T09:59:51.566Z,21.58
2022-08-21T10:00:51.613Z,21.49
2022-08-21T10:01:51.568Z,21.52
2022-08-21T10:02:51.527Z,21.46
2022-08-21T10:03:51.511Z,21.47
2022-08-21T10:04:51.502Z,21.42
2022-08-21T10:05:51.519Z,21.49
2022-08-21T10:06:51.507Z,21.43
2022-08-21T10:07:51.487Z,21.52
2022-08-21T10:08:51.503Z,21.54
2022-08-21T10:09:51.443Z,21.53
2022-08-21T10:10:51.439Z,21.68
2022-08-21T10:11:51.454Z,21.68
2022-08-21T10:12:51.568Z,21.79
2022-08-21T10:13:51.397Z,21.83
2022-08-21T10:14:51.406Z,21.84
2022-08-21T10:15:51.377Z,21.88
2022-08-21T10:16:51.382Z,21.94
2022-08-21T10:17:51.384Z,21.96
2022-08-21T10:18:51.359Z,22.00
2022-08-21T10:19:51.329Z,22.05
2022-08-21T10:20:51.370Z,22.15
2022-08-21T10:21:51.309Z,22.25
2022-08-21T10:22:51.337Z,22.21
2022-08-21T10:23:51.322Z,22.24
2022-08-21T10:24:51.298Z,22.30
2022-08-21T10:26:02.732Z,22.47
2022-08-21T10:26:52.269Z,22.47
2022-08-21T10:27:51.251Z,22.49
2022-08-21T10:28:51.284Z,22.33
2022-08-21T10:29:51.229Z,22.24
2022-08-21T10:30:51.209Z,22.18
2022-08-21T10:31:51.195Z,22.09
2022-08-21T10:32:51.288Z,22.03
2022-08-21T10:33:51.186Z,22.00
2022-08-21T10:34:51.218Z,21.91
2022-08-21T10:35:51.193Z,21.83
2022-08-21T10:36:51.142Z,21.84
2022-08-21T10:37:51.151Z,21.84
2022-08-21T10:39:07.430Z,21.90
2022-08-21T10:39:52.195Z,21.86
2022-08-21T10:40:51.120Z,21.90
2022-08-21T10:41:51.133Z,22.02
2022-08-21T10:42:51.195Z,22.03
2022-08-21T10:43:51.086Z,21.94
2022-08-21T10:44:51.064Z,22.02
2022-08-21T10:45:51.071Z,22.09
2022-08-21T10:46:51.040Z,22.15
2022-08-21T10:47:53.813Z,22.18
2022-08-21T10:48:52.110Z,22.14
2022-08-21T10:49:51.024Z,22.17
2022-08-21T10:50:51.011Z,22.17
2022-08-21T10:51:50.984Z,22.25
2022-08-21T10:52:51.036Z,22.17
2022-08-21T10:53:50.947Z,22.14
2022-08-21T10:54:50.959Z,22.15
2022-08-21T10:55:50.939Z,22.20
2022-08-21T10:56:50.915Z,22.17
2022-08-21T10:57:50.938Z,22.17
2022-08-21T10:58:50.894Z,22.09
2022-08-21T10:59:50.889Z,22.12
2022-08-21T11:00:50.954Z,22.14
2022-08-21T11:01:50.869Z,22.17
2022-08-21T11:02:51.050Z,22.14
2022-08-21T11:03:50.854Z,22.28
2022-08-21T11:04:50.828Z,22.22
2022-08-21T11:05:51.019Z,22.28
2022-08-21T11:06:50.834Z,22.37
2022-08-21T11:07:50.821Z,22.46
2022-08-21T11:08:50.800Z,22.46
2022-08-21T11:09:50.815Z,22.58
2022-08-21T11:10:57.863Z,22.60
2022-08-21T11:11:59.482Z,22.65
2022-08-21T11:12:52.000Z,22.67
2022-08-21T11:13:50.734Z,22.61
2022-08-21T11:14:50.745Z,22.68
2022-08-21T11:15:50.738Z,22.60
2022-08-21T11:16:50.690Z,22.65
2022-08-21T11:17:50.703Z,22.79
2022-08-21T11:18:50.684Z,22.80
2022-08-21T11:19:50.693Z,22.86
2022-08-21T11:20:50.663Z,22.83
2022-08-21T11:21:50.632Z,22.83
2022-08-21T11:22:54.597Z,22.77
2022-08-21T11:23:50.623Z,22.76
2022-08-21T11:24:50.617Z,22.68
2022-08-21T11:25:50.616Z,22.61
2022-08-21T11:26:51.270Z,22.73
2022-08-21T11:27:50.564Z,22.68
2022-08-21T11:28:50.558Z,22.73
2022-08-21T11:29:50.553Z,22.65
2022-08-21T11:30:50.564Z,22.70
2022-08-21T11:31:50.549Z,22.65
2022-08-21T11:32:50.670Z,22.70
2022-08-21T11:33:50.498Z,22.80
2022-08-21T11:34:50.520Z,22.80
2022-08-21T11:35:50.502Z,22.80
2022-08-21T11:36:50.488Z,22.83
2022-08-21T11:37:50.469Z,22.86
2022-08-21T11:38:50.443Z,22.90
2022-08-21T11:39:50.548Z,22.86
2022-08-21T11:40:50.453Z,22.95
2022-08-21T11:41:50.424Z,22.92
2022-08-21T11:42:50.499Z,23.05
2022-08-21T11:43:50.417Z,23.19
2022-08-21T11:44:50.375Z,23.20
2022-08-21T11:45:50.362Z,23.19
2022-08-21T11:46:50.364Z,23.09
2022-08-21T11:47:53.738Z,22.98
2022-08-21T11:48:50.353Z,22.95
2022-08-21T11:49:50.317Z,22.83
2022-08-21T11:50:50.322Z,22.82
2022-08-21T11:51:50.302Z,22.70
2022-08-21T11:52:50.345Z,22.61
2022-08-21T11:53:53.809Z,22.70
2022-08-21T11:54:50.306Z,22.68
2022-08-21T11:55:50.266Z,22.64
2022-08-21T11:56:50.242Z,22.58
2022-08-21T11:57:50.233Z,22.64
2022-08-21T11:58:50.242Z,22.72
2022-08-21T11:59:50.235Z,22.67
2022-08-21T12:00:50.217Z,22.79
2022-08-21T12:01:50.259Z,22.77
2022-08-21T12:02:50.175Z,22.80
2022-08-21T12:03:50.182Z,22.79
2022-08-21T12:04:50.186Z,22.76
2022-08-21T12:05:50.156Z,22.77
2022-08-21T12:06:50.127Z,22.83
2022-08-21T12:07:50.191Z,22.90
2022-08-21T12:08:50.141Z,22.88
2022-08-21T12:09:50.102Z,22.94
2022-08-21T12:10:50.916Z,23.01
2022-08-21T12:11:50.094Z,23.07
2022-08-21T12:12:50.108Z,23.13
2022-08-21T12:13:50.050Z,23.15
2022-08-21T12:14:50.056Z,23.19
2022-08-21T12:15:50.031Z,23.17
2022-08-21T12:16:50.063Z,23.17
2022-08-21T12:17:50.033Z,23.22
2022-08-21T12:18:49.994Z,23.15
2022-08-21T12:19:49.980Z,23.09
2022-08-21T12:20:50.027Z,23.05
2022-08-21T12:21:49.978Z,23.10
2022-08-21T12:22:49.978Z,23.17
2022-08-21T12:23:49.939Z,23.23
2022-08-21T12:24:49.924Z,23.22
2022-08-21T12:25:49.938Z,23.39
2022-08-21T12:26:49.906Z,23.31
2022-08-21T12:27:49.955Z,23.36
2022-08-21T12:28:49.915Z,23.43
2022-08-21T12:29:49.869Z,23.35
2022-08-21T12:30:49.861Z,23.38
2022-08-21T12:31:49.860Z,23.35
2022-08-21T12:32:49.875Z,23.36
2022-08-21T12:33:49.845Z,23.33
2022-08-21T12:34:49.861Z,23.32
2022-08-21T12:35:49.803Z,23.38
2022-08-21T12:36:49.791Z,23.35
2022-08-21T12:37:49.805Z,23.47
2022-08-21T12:38:49.820Z,23.31
2022-08-21T12:39:49.824Z,23.33
2022-08-21T12:40:49.745Z,23.40
2022-08-21T12:41:49.762Z,23.40
2022-08-21T12:42:58.318Z,23.48
2022-08-21T12:43:50.753Z,23.58
2022-08-21T12:44:50.291Z,23.60
2022-08-21T12:45:49.690Z,23.60
2022-08-21T12:46:49.677Z,23.65
2022-08-21T12:47:49.669Z,23.66
2022-08-21T12:48:49.678Z,23.60
2022-08-21T12:49:49.655Z,23.58
2022-08-21T12:50:49.690Z,23.65
2022-08-21T12:51:49.624Z,23.58
2022-08-21T12:52:49.614Z,23.55